Portada
METAR-TAF:

METAR-TAF

Aeroports :

Tingo María, Perú

latitud: 09-17-15S, longitud: 076-00-18W, altitud: 654 m

Observació

L'informe es va fer fa 28 minuts, a les 16:00 UTC
Vent 6 kt del Sud/Sud-Oest
Temperatura 22°C
Humitat 94%
Pressió 1015 hPa
Visibilitat 10 km o més
Núvols disperses a una alçada de 4000 ft
Cel cobert a una alçada de 10000 ft

METAR: SPGM 241600Z 20006KT 9999 SCT040 OVC100 22/21 Q1015 RMK PP000

Hora: 11:28 (16:28 UTC)

Pronòstic

L'informe es va fer fa 3 hores i 28 minuts, a les 13:00 UTC
Pronòstic vàlid del 24 a les 13 UTC al 25 a les 12 UTC
Vent 5 kt del Nord-Est
Visibilitat 10 km o més
Núvols disperses a una alçada de 4000 ft
Cel cobert a una alçada de 10000 ft

TAF: SPGM 241300Z 2413/2512 05005KT 9999 SCT040 OVC100 TX29/2419Z TN21/2510Z

Observacions i pronòstics meteorològics de més de 4000 aeroports (METAR i TAF).

Les estacions disponibles són els punts grocs i vermells al mapa.

Posi el ratolí al punt desitjat per veure el nom de l'estació.

Feu clic per veure les observacions i els pronòstics meteorològics.

Per canviar el mapa: feu clic els botons verds amb una creu de color negre per apropar; al botó verd amb un guió per allunyar la imatge; o en les fletxes verdes per a mapes adjacents.


METAR-TAF: